sensor_id;sensor_type;location;lat;lon;timestamp;temperature;humidity
20045;DHT22;10183;47.808;9.476;2023-05-20T00:01:16;11.10;99.90
20045;DHT22;10183;47.808;9.476;2023-05-20T00:03:42;11.10;99.90
20045;DHT22;10183;47.808;9.476;2023-05-20T00:06:08;11.00;99.90
20045;DHT22;10183;47.808;9.476;2023-05-20T00:08:34;11.00;99.90
20045;DHT22;10183;47.808;9.476;2023-05-20T00:11:01;10.90;99.90
20045;DHT22;10183;47.808;9.476;2023-05-20T00:13:27;10.90;99.90
20045;DHT22;10183;47.808;9.476;2023-05-20T00:15:53;10.90;99.90
20045;DHT22;10183;47.808;9.476;2023-05-20T00:18:19;10.90;99.90
20045;DHT22;10183;47.808;9.476;2023-05-20T00:20:45;10.90;99.90
20045;DHT22;10183;47.808;9.476;2023-05-20T00:23:11;10.90;99.90
20045;DHT22;10183;47.808;9.476;2023-05-20T00:25:37;10.90;99.90
20045;DHT22;10183;47.808;9.476;2023-05-20T00:28:05;10.80;99.90
20045;DHT22;10183;47.808;9.476;2023-05-20T00:30:31;10.70;99.90
20045;DHT22;10183;47.808;9.476;2023-05-20T00:32:57;10.70;99.90
20045;DHT22;10183;47.808;9.476;2023-05-20T00:35:23;10.70;99.90
20045;DHT22;10183;47.808;9.476;2023-05-20T00:37:50;10.60;99.90
20045;DHT22;10183;47.808;9.476;2023-05-20T00:40:16;10.60;99.90
20045;DHT22;10183;47.808;9.476;2023-05-20T00:42:42;10.60;99.90
20045;DHT22;10183;47.808;9.476;2023-05-20T00:45:09;10.60;99.90
20045;DHT22;10183;47.808;9.476;2023-05-20T00:47:37;10.70;99.90
20045;DHT22;10183;47.808;9.476;2023-05-20T00:50:03;10.70;99.90
20045;DHT22;10183;47.808;9.476;2023-05-20T00:52:31;10.60;99.90
20045;DHT22;10183;47.808;9.476;2023-05-20T00:54:57;10.70;99.90
20045;DHT22;10183;47.808;9.476;2023-05-20T00:57:24;10.70;99.90
20045;DHT22;10183;47.808;9.476;2023-05-20T00:59:51;10.70;99.90
20045;DHT22;10183;47.808;9.476;2023-05-20T01:02:17;10.70;99.90
20045;DHT22;10183;47.808;9.476;2023-05-20T01:04:44;10.80;99.90
20045;DHT22;10183;47.808;9.476;2023-05-20T01:07:14;10.80;99.90
20045;DHT22;10183;47.808;9.476;2023-05-20T01:09:41;10.80;99.90
20045;DHT22;10183;47.808;9.476;2023-05-20T01:14:49;10.80;99.90
20045;DHT22;10183;47.808;9.476;2023-05-20T01:17:18;10.70;99.90
20045;DHT22;10183;47.808;9.476;2023-05-20T01:19:46;10.80;99.90
20045;DHT22;10183;47.808;9.476;2023-05-20T01:22:14;10.80;99.90
20045;DHT22;10183;47.808;9.476;2023-05-20T01:24:42;10.70;99.90
20045;DHT22;10183;47.808;9.476;2023-05-20T01:27:12;10.70;99.90
20045;DHT22;10183;47.808;9.476;2023-05-20T01:29:41;10.70;99.90
20045;DHT22;10183;47.808;9.476;2023-05-20T01:34:52;10.70;99.90
20045;DHT22;10183;47.808;9.476;2023-05-20T01:37:20;10.70;99.90
20045;DHT22;10183;47.808;9.476;2023-05-20T01:39:48;10.80;99.90
20045;DHT22;10183;47.808;9.476;2023-05-20T01:42:16;10.80;99.90
20045;DHT22;10183;47.808;9.476;2023-05-20T01:44:42;10.80;99.90
20045;DHT22;10183;47.808;9.476;2023-05-20T01:47:08;10.80;99.90
20045;DHT22;10183;47.808;9.476;2023-05-20T01:49:35;10.80;99.90
20045;DHT22;10183;47.808;9.476;2023-05-20T01:52:01;10.80;99.90
20045;DHT22;10183;47.808;9.476;2023-05-20T01:54:27;10.80;99.90
20045;DHT22;10183;47.808;9.476;2023-05-20T01:56:54;10.80;99.90
20045;DHT22;10183;47.808;9.476;2023-05-20T01:59:20;10.80;99.90
20045;DHT22;10183;47.808;9.476;2023-05-20T02:01:46;10.80;99.90
20045;DHT22;10183;47.808;9.476;2023-05-20T02:04:13;10.80;99.90
20045;DHT22;10183;47.808;9.476;2023-05-20T02:06:39;10.80;99.90
20045;DHT22;10183;47.808;9.476;2023-05-20T02:09:06;10.80;99.90
20045;DHT22;10183;47.808;9.476;2023-05-20T02:11:32;10.80;99.90
20045;DHT22;10183;47.808;9.476;2023-05-20T02:13:58;10.80;99.90
20045;DHT22;10183;47.808;9.476;2023-05-20T02:16:24;10.70;99.90
20045;DHT22;10183;47.808;9.476;2023-05-20T02:18:50;10.70;99.90
20045;DHT22;10183;47.808;9.476;2023-05-20T02:21:17;10.70;99.90
20045;DHT22;10183;47.808;9.476;2023-05-20T02:23:43;10.60;99.90
20045;DHT22;10183;47.808;9.476;2023-05-20T02:26:10;10.60;99.90
20045;DHT22;10183;47.808;9.476;2023-05-20T02:28:36;10.60;99.90
20045;DHT22;10183;47.808;9.476;2023-05-20T02:31:05;10.60;99.90
20045;DHT22;10183;47.808;9.476;2023-05-20T02:33:31;10.60;99.90
20045;DHT22;10183;47.808;9.476;2023-05-20T02:35:58;10.60;99.90
20045;DHT22;10183;47.808;9.476;2023-05-20T02:38:24;10.60;99.90
20045;DHT22;10183;47.808;9.476;2023-05-20T02:40:51;10.60;99.90
20045;DHT22;10183;47.808;9.476;2023-05-20T02:43:17;10.60;99.90
20045;DHT22;10183;47.808;9.476;2023-05-20T02:45:43;10.50;99.90
20045;DHT22;10183;47.808;9.476;2023-05-20T02:48:09;10.50;99.90
20045;DHT22;10183;47.808;9.476;2023-05-20T02:50:37;10.40;99.90
20045;DHT22;10183;47.808;9.476;2023-05-20T02:53:05;10.30;99.90
20045;DHT22;10183;47.808;9.476;2023-05-20T02:55:33;10.20;99.90
20045;DHT22;10183;47.808;9.476;2023-05-20T02:58:00;10.20;99.90
20045;DHT22;10183;47.808;9.476;2023-05-20T03:00:27;10.10;99.90
20045;DHT22;10183;47.808;9.476;2023-05-20T03:02:55;10.10;99.90
20045;DHT22;10183;47.808;9.476;2023-05-20T03:05:21;10.00;99.90
20045;DHT22;10183;47.808;9.476;2023-05-20T03:07:47;10.10;99.90
20045;DHT22;10183;47.808;9.476;2023-05-20T03:10:14;10.10;99.90
20045;DHT22;10183;47.808;9.476;2023-05-20T03:12:40;10.10;99.90
20045;DHT22;10183;47.808;9.476;2023-05-20T03:15:07;10.10;99.90
20045;DHT22;10183;47.808;9.476;2023-05-20T03:17:34;10.20;99.90
20045;DHT22;10183;47.808;9.476;2023-05-20T03:20:00;10.20;99.90
20045;DHT22;10183;47.808;9.476;2023-05-20T03:22:26;10.30;99.90
20045;DHT22;10183;47.808;9.476;2023-05-20T03:24:52;10.40;99.90
20045;DHT22;10183;47.808;9.476;2023-05-20T03:27:18;10.40;99.90
20045;DHT22;10183;47.808;9.476;2023-05-20T03:29:46;10.50;99.90
20045;DHT22;10183;47.808;9.476;2023-05-20T03:32:13;10.50;99.90
20045;DHT22;10183;47.808;9.476;2023-05-20T03:34:39;10.50;99.90
20045;DHT22;10183;47.808;9.476;2023-05-20T03:37:06;10.60;99.90
20045;DHT22;10183;47.808;9.476;2023-05-20T03:39:32;10.60;99.90
20045;DHT22;10183;47.808;9.476;2023-05-20T03:41:58;10.60;99.90
20045;DHT22;10183;47.808;9.476;2023-05-20T03:44:25;10.60;99.90
20045;DHT22;10183;47.808;9.476;2023-05-20T03:46:51;10.60;99.90
20045;DHT22;10183;47.808;9.476;2023-05-20T03:49:17;10.70;99.90
20045;DHT22;10183;47.808;9.476;2023-05-20T03:51:43;10.70;99.90
20045;DHT22;10183;47.808;9.476;2023-05-20T03:54:10;10.70;99.90
20045;DHT22;10183;47.808;9.476;2023-05-20T03:56:36;10.70;99.90
20045;DHT22;10183;47.808;9.476;2023-05-20T03:59:03;10.70;99.90
20045;DHT22;10183;47.808;9.476;2023-05-20T04:01:29;10.80;99.90
20045;DHT22;10183;47.808;9.476;2023-05-20T04:03:55;10.80;99.90
20045;DHT22;10183;47.808;9.476;2023-05-20T04:06:21;10.80;99.90
20045;DHT22;10183;47.808;9.476;2023-05-20T04:08:48;10.80;99.90
20045;DHT22;10183;47.808;9.476;2023-05-20T04:11:14;10.90;99.90
20045;DHT22;10183;47.808;9.476;2023-05-20T04:13:42;10.90;99.90
20045;DHT22;10183;47.808;9.476;2023-05-20T04:16:08;10.90;99.90
20045;DHT22;10183;47.808;9.476;2023-05-20T04:18:34;10.90;99.90
20045;DHT22;10183;47.808;9.476;2023-05-20T04:21:04;10.90;99.90
20045;DHT22;10183;47.808;9.476;2023-05-20T04:23:30;11.00;99.90
20045;DHT22;10183;47.808;9.476;2023-05-20T04:25:56;11.00;99.90
20045;DHT22;10183;47.808;9.476;2023-05-20T04:28:27;11.00;99.90
20045;DHT22;10183;47.808;9.476;2023-05-20T04:31:02;11.10;99.90
20045;DHT22;10183;47.808;9.476;2023-05-20T04:33:31;11.10;99.90
20045;DHT22;10183;47.808;9.476;2023-05-20T04:35:58;11.10;99.90
20045;DHT22;10183;47.808;9.476;2023-05-20T04:38:24;11.20;99.90
20045;DHT22;10183;47.808;9.476;2023-05-20T04:40:58;11.20;99.90
20045;DHT22;10183;47.808;9.476;2023-05-20T04:43:25;11.20;99.90
20045;DHT22;10183;47.808;9.476;2023-05-20T04:45:55;11.20;99.90
20045;DHT22;10183;47.808;9.476;2023-05-20T04:48:22;11.20;99.90
20045;DHT22;10183;47.808;9.476;2023-05-20T04:50:48;11.30;99.90
20045;DHT22;10183;47.808;9.476;2023-05-20T04:53:15;11.30;99.90
20045;DHT22;10183;47.808;9.476;2023-05-20T04:55:42;11.30;99.90
20045;DHT22;10183;47.808;9.476;2023-05-20T04:58:09;11.30;99.90
20045;DHT22;10183;47.808;9.476;2023-05-20T05:00:44;11.40;99.90
20045;DHT22;10183;47.808;9.476;2023-05-20T05:03:10;11.50;99.90
20045;DHT22;10183;47.808;9.476;2023-05-20T05:05:40;11.50;99.90
20045;DHT22;10183;47.808;9.476;2023-05-20T05:08:07;11.50;99.90
20045;DHT22;10183;47.808;9.476;2023-05-20T05:10:34;11.60;99.90
20045;DHT22;10183;47.808;9.476;2023-05-20T05:13:01;11.60;99.90
20045;DHT22;10183;47.808;9.476;2023-05-20T05:15:28;11.60;99.90
20045;DHT22;10183;47.808;9.476;2023-05-20T05:17:54;11.60;99.90
20045;DHT22;10183;47.808;9.476;2023-05-20T05:20:20;11.60;99.90
20045;DHT22;10183;47.808;9.476;2023-05-20T05:22:47;11.70;99.90
20045;DHT22;10183;47.808;9.476;2023-05-20T05:25:15;11.70;99.90
20045;DHT22;10183;47.808;9.476;2023-05-20T05:27:41;11.70;99.90
20045;DHT22;10183;47.808;9.476;2023-05-20T05:30:09;11.70;99.90
20045;DHT22;10183;47.808;9.476;2023-05-20T05:32:36;11.70;99.90
20045;DHT22;10183;47.808;9.476;2023-05-20T05:35:03;11.70;99.90
20045;DHT22;10183;47.808;9.476;2023-05-20T05:37:29;11.80;99.90
20045;DHT22;10183;47.808;9.476;2023-05-20T05:39:55;11.80;99.90
20045;DHT22;10183;47.808;9.476;2023-05-20T05:42:21;11.80;99.90
20045;DHT22;10183;47.808;9.476;2023-05-20T05:44:48;11.90;99.90
20045;DHT22;10183;47.808;9.476;2023-05-20T05:47:14;11.90;99.90
20045;DHT22;10183;47.808;9.476;2023-05-20T05:49:40;11.90;99.90
20045;DHT22;10183;47.808;9.476;2023-05-20T05:52:06;11.90;99.90
20045;DHT22;10183;47.808;9.476;2023-05-20T05:54:32;11.90;99.90
20045;DHT22;10183;47.808;9.476;2023-05-20T05:56:59;12.10;99.90
20045;DHT22;10183;47.808;9.476;2023-05-20T05:59:25;12.10;99.90
20045;DHT22;10183;47.808;9.476;2023-05-20T06:01:51;12.20;99.90
20045;DHT22;10183;47.808;9.476;2023-05-20T06:04:17;12.20;99.90
20045;DHT22;10183;47.808;9.476;2023-05-20T06:06:43;12.20;99.90
20045;DHT22;10183;47.808;9.476;2023-05-20T06:09:09;12.20;99.90
20045;DHT22;10183;47.808;9.476;2023-05-20T06:11:36;12.20;99.90
20045;DHT22;10183;47.808;9.476;2023-05-20T06:14:02;12.30;99.90
20045;DHT22;10183;47.808;9.476;2023-05-20T06:16:28;12.50;99.90
20045;DHT22;10183;47.808;9.476;2023-05-20T06:18:54;12.50;99.90
20045;DHT22;10183;47.808;9.476;2023-05-20T06:21:22;12.60;99.90
20045;DHT22;10183;47.808;9.476;2023-05-20T06:23:48;12.60;99.90
20045;DHT22;10183;47.808;9.476;2023-05-20T06:26:15;12.70;99.90
20045;DHT22;10183;47.808;9.476;2023-05-20T06:28:41;12.60;99.90
20045;DHT22;10183;47.808;9.476;2023-05-20T06:31:07;12.50;99.90
20045;DHT22;10183;47.808;9.476;2023-05-20T06:33:33;12.50;99.90
20045;DHT22;10183;47.808;9.476;2023-05-20T06:36:00;12.60;99.90
20045;DHT22;10183;47.808;9.476;2023-05-20T06:38:27;12.60;99.90
20045;DHT22;10183;47.808;9.476;2023-05-20T06:40:53;12.70;99.90
20045;DHT22;10183;47.808;9.476;2023-05-20T06:43:19;12.80;99.90
20045;DHT22;10183;47.808;9.476;2023-05-20T06:45:45;12.90;99.90
20045;DHT22;10183;47.808;9.476;2023-05-20T06:48:11;13.10;99.90
20045;DHT22;10183;47.808;9.476;2023-05-20T06:50:38;13.10;99.90
20045;DHT22;10183;47.808;9.476;2023-05-20T06:53:04;13.20;99.90
20045;DHT22;10183;47.808;9.476;2023-05-20T06:55:30;13.20;99.90
20045;DHT22;10183;47.808;9.476;2023-05-20T06:57:56;13.20;99.90
20045;DHT22;10183;47.808;9.476;2023-05-20T07:00:22;13.20;99.90
20045;DHT22;10183;47.808;9.476;2023-05-20T07:02:49;13.20;99.90
20045;DHT22;10183;47.808;9.476;2023-05-20T07:05:15;13.20;99.90
20045;DHT22;10183;47.808;9.476;2023-05-20T07:07:41;13.20;99.90
20045;DHT22;10183;47.808;9.476;2023-05-20T07:10:08;13.10;99.90
20045;DHT22;10183;47.808;9.476;2023-05-20T07:12:34;13.10;99.90
20045;DHT22;10183;47.808;9.476;2023-05-20T07:15:00;13.10;99.90
20045;DHT22;10183;47.808;9.476;2023-05-20T07:17:27;13.20;99.90
20045;DHT22;10183;47.808;9.476;2023-05-20T07:19:54;13.10;99.90
20045;DHT22;10183;47.808;9.476;2023-05-20T07:22:22;13.00;99.90
20045;DHT22;10183;47.808;9.476;2023-05-20T07:24:48;13.00;99.90
20045;DHT22;10183;47.808;9.476;2023-05-20T07:27:14;12.90;99.90
20045;DHT22;10183;47.808;9.476;2023-05-20T07:29:41;13.00;99.90
20045;DHT22;10183;47.808;9.476;2023-05-20T07:32:08;12.90;99.90
20045;DHT22;10183;47.808;9.476;2023-05-20T07:34:35;12.90;99.90
20045;DHT22;10183;47.808;9.476;2023-05-20T07:37:02;12.80;99.90
20045;DHT22;10183;47.808;9.476;2023-05-20T07:39:29;12.80;99.90
20045;DHT22;10183;47.808;9.476;2023-05-20T07:41:55;12.80;99.90
20045;DHT22;10183;47.808;9.476;2023-05-20T07:44:21;12.90;99.90
20045;DHT22;10183;47.808;9.476;2023-05-20T07:46:48;12.90;99.90
20045;DHT22;10183;47.808;9.476;2023-05-20T07:49:14;12.90;99.90
20045;DHT22;10183;47.808;9.476;2023-05-20T07:51:40;12.90;99.90
20045;DHT22;10183;47.808;9.476;2023-05-20T07:54:07;13.10;99.90
20045;DHT22;10183;47.808;9.476;2023-05-20T07:56:33;13.20;99.90
20045;DHT22;10183;47.808;9.476;2023-05-20T07:58:59;13.30;99.90
20045;DHT22;10183;47.808;9.476;2023-05-20T08:01:26;13.30;99.90
20045;DHT22;10183;47.808;9.476;2023-05-20T08:03:52;13.30;99.90
20045;DHT22;10183;47.808;9.476;2023-05-20T08:06:19;13.30;99.90
20045;DHT22;10183;47.808;9.476;2023-05-20T08:08:46;13.20;99.90
20045;DHT22;10183;47.808;9.476;2023-05-20T08:11:12;13.30;99.90
20045;DHT22;10183;47.808;9.476;2023-05-20T08:13:38;13.30;99.90
20045;DHT22;10183;47.808;9.476;2023-05-20T08:16:05;13.40;99.90
20045;DHT22;10183;47.808;9.476;2023-05-20T08:18:33;13.30;99.90
20045;DHT22;10183;47.808;9.476;2023-05-20T08:21:00;13.20;99.90
20045;DHT22;10183;47.808;9.476;2023-05-20T08:23:26;13.20;99.90
20045;DHT22;10183;47.808;9.476;2023-05-20T08:25:52;13.40;99.90
20045;DHT22;10183;47.808;9.476;2023-05-20T08:28:18;13.50;99.90
20045;DHT22;10183;47.808;9.476;2023-05-20T08:30:44;13.70;99.90
20045;DHT22;10183;47.808;9.476;2023-05-20T08:33:13;13.80;99.90
20045;DHT22;10183;47.808;9.476;2023-05-20T08:35:39;13.70;99.90
20045;DHT22;10183;47.808;9.476;2023-05-20T08:38:05;13.70;99.90
20045;DHT22;10183;47.808;9.476;2023-05-20T08:40:34;13.70;99.90
20045;DHT22;10183;47.808;9.476;2023-05-20T08:43:01;13.80;99.90
20045;DHT22;10183;47.808;9.476;2023-05-20T08:45:31;13.80;99.90
20045;DHT22;10183;47.808;9.476;2023-05-20T08:47:57;14.00;99.90
20045;DHT22;10183;47.808;9.476;2023-05-20T08:50:24;14.20;99.90
20045;DHT22;10183;47.808;9.476;2023-05-20T08:52:50;14.50;99.90
20045;DHT22;10183;47.808;9.476;2023-05-20T08:58:02;15.00;99.90
20045;DHT22;10183;47.808;9.476;2023-05-20T09:00:28;15.00;99.90
20045;DHT22;10183;47.808;9.476;2023-05-20T09:02:55;15.10;99.90
20045;DHT22;10183;47.808;9.476;2023-05-20T09:05:21;15.00;99.90
20045;DHT22;10183;47.808;9.476;2023-05-20T09:07:48;15.20;99.90
20045;DHT22;10183;47.808;9.476;2023-05-20T09:10:14;15.20;99.90
20045;DHT22;10183;47.808;9.476;2023-05-20T09:12:41;15.20;99.90
20045;DHT22;10183;47.808;9.476;2023-05-20T09:15:08;15.10;99.90
20045;DHT22;10183;47.808;9.476;2023-05-20T09:17:35;15.00;99.90
20045;DHT22;10183;47.808;9.476;2023-05-20T09:20:06;15.30;99.90
20045;DHT22;10183;47.808;9.476;2023-05-20T09:22:33;15.40;99.90
20045;DHT22;10183;47.808;9.476;2023-05-20T09:25:00;15.60;99.90
20045;DHT22;10183;47.808;9.476;2023-05-20T09:27:26;15.70;99.90
20045;DHT22;10183;47.808;9.476;2023-05-20T09:29:52;15.60;99.90
20045;DHT22;10183;47.808;9.476;2023-05-20T09:32:20;15.10;99.90
20045;DHT22;10183;47.808;9.476;2023-05-20T09:34:49;15.00;99.90
20045;DHT22;10183;47.808;9.476;2023-05-20T09:37:20;15.00;99.90
20045;DHT22;10183;47.808;9.476;2023-05-20T09:39:59;14.90;99.90
20045;DHT22;10183;47.808;9.476;2023-05-20T09:42:41;14.80;99.90
20045;DHT22;10183;47.808;9.476;2023-05-20T09:45:07;14.50;99.90
20045;DHT22;10183;47.808;9.476;2023-05-20T09:47:38;14.60;99.90
20045;DHT22;10183;47.808;9.476;2023-05-20T09:50:08;14.50;99.90
20045;DHT22;10183;47.808;9.476;2023-05-20T09:52:36;14.60;99.90
20045;DHT22;10183;47.808;9.476;2023-05-20T09:55:05;14.90;99.90
20045;DHT22;10183;47.808;9.476;2023-05-20T09:57:35;14.90;99.90
20045;DHT22;10183;47.808;9.476;2023-05-20T10:00:04;14.80;99.90
20045;DHT22;10183;47.808;9.476;2023-05-20T10:02:33;14.90;99.90
20045;DHT22;10183;47.808;9.476;2023-05-20T10:05:08;15.00;99.90
20045;DHT22;10183;47.808;9.476;2023-05-20T10:13:49;15.10;99.90
20045;DHT22;10183;47.808;9.476;2023-05-20T10:16:42;15.20;99.90
20045;DHT22;10183;47.808;9.476;2023-05-20T10:19:27;15.30;99.90
20045;DHT22;10183;47.808;9.476;2023-05-20T10:22:03;15.40;99.90
20045;DHT22;10183;47.808;9.476;2023-05-20T10:24:35;15.40;99.90
20045;DHT22;10183;47.808;9.476;2023-05-20T10:27:06;15.30;99.90
20045;DHT22;10183;47.808;9.476;2023-05-20T10:29:52;15.40;99.90
20045;DHT22;10183;47.808;9.476;2023-05-20T10:32:32;15.60;99.90
20045;DHT22;10183;47.808;9.476;2023-05-20T10:35:04;15.50;99.90
20045;DHT22;10183;47.808;9.476;2023-05-20T10:37:39;15.60;99.90
20045;DHT22;10183;47.808;9.476;2023-05-20T10:40:11;15.80;99.90
20045;DHT22;10183;47.808;9.476;2023-05-20T10:42:40;16.00;99.90
20045;DHT22;10183;47.808;9.476;2023-05-20T10:45:07;16.30;99.90
20045;DHT22;10183;47.808;9.476;2023-05-20T10:47:34;17.10;99.90
20045;DHT22;10183;47.808;9.476;2023-05-20T10:50:01;18.00;99.90
20045;DHT22;10183;47.808;9.476;2023-05-20T10:52:33;18.80;99.90
20045;DHT22;10183;47.808;9.476;2023-05-20T10:55:00;18.60;99.90
20045;DHT22;10183;47.808;9.476;2023-05-20T10:57:27;18.50;99.90
20045;DHT22;10183;47.808;9.476;2023-05-20T10:59:55;18.60;99.90
20045;DHT22;10183;47.808;9.476;2023-05-20T11:02:21;19.00;99.90
20045;DHT22;10183;47.808;9.476;2023-05-20T11:04:57;18.80;99.90
20045;DHT22;10183;47.808;9.476;2023-05-20T11:07:27;18.60;99.90
20045;DHT22;10183;47.808;9.476;2023-05-20T11:09:55;19.20;99.90
20045;DHT22;10183;47.808;9.476;2023-05-20T11:12:23;19.00;99.90
20045;DHT22;10183;47.808;9.476;2023-05-20T11:14:50;19.00;99.90
20045;DHT22;10183;47.808;9.476;2023-05-20T11:17:20;18.70;99.90
20045;DHT22;10183;47.808;9.476;2023-05-20T11:19:47;18.40;99.90
20045;DHT22;10183;47.808;9.476;2023-05-20T11:22:14;18.60;99.90
20045;DHT22;10183;47.808;9.476;2023-05-20T11:24:40;18.80;99.90
20045;DHT22;10183;47.808;9.476;2023-05-20T11:27:07;19.20;99.90
20045;DHT22;10183;47.808;9.476;2023-05-20T11:29:35;19.20;99.90
20045;DHT22;10183;47.808;9.476;2023-05-20T11:32:02;19.20;99.90
20045;DHT22;10183;47.808;9.476;2023-05-20T11:34:37;18.80;99.90
20045;DHT22;10183;47.808;9.476;2023-05-20T11:37:08;18.50;99.90
20045;DHT22;10183;47.808;9.476;2023-05-20T11:39:36;18.30;99.90
20045;DHT22;10183;47.808;9.476;2023-05-20T11:42:02;18.40;99.90
20045;DHT22;10183;47.808;9.476;2023-05-20T11:44:28;18.90;99.90
20045;DHT22;10183;47.808;9.476;2023-05-20T11:46:59;20.00;99.90
20045;DHT22;10183;47.808;9.476;2023-05-20T11:49:26;20.60;99.90
20045;DHT22;10183;47.808;9.476;2023-05-20T11:51:53;20.60;99.90
20045;DHT22;10183;47.808;9.476;2023-05-20T11:54:21;20.00;99.90
20045;DHT22;10183;47.808;9.476;2023-05-20T11:56:47;19.50;99.90
20045;DHT22;10183;47.808;9.476;2023-05-20T11:59:13;18.90;99.90
20045;DHT22;10183;47.808;9.476;2023-05-20T12:01:40;18.70;99.90
20045;DHT22;10183;47.808;9.476;2023-05-20T12:04:07;18.90;99.90
20045;DHT22;10183;47.808;9.476;2023-05-20T12:06:33;19.10;99.90
20045;DHT22;10183;47.808;9.476;2023-05-20T12:09:01;19.00;99.90
20045;DHT22;10183;47.808;9.476;2023-05-20T12:11:33;18.90;99.90
20045;DHT22;10183;47.808;9.476;2023-05-20T12:14:04;19.30;99.90
20045;DHT22;10183;47.808;9.476;2023-05-20T12:16:32;19.80;99.90
20045;DHT22;10183;47.808;9.476;2023-05-20T12:18:59;20.00;99.90
20045;DHT22;10183;47.808;9.476;2023-05-20T12:21:29;20.50;99.90
20045;DHT22;10183;47.808;9.476;2023-05-20T12:23:58;20.40;99.90
20045;DHT22;10183;47.808;9.476;2023-05-20T12:26:25;20.70;99.90
20045;DHT22;10183;47.808;9.476;2023-05-20T12:28:53;20.70;99.90
20045;DHT22;10183;47.808;9.476;2023-05-20T12:31:19;21.20;99.90
20045;DHT22;10183;47.808;9.476;2023-05-20T12:33:46;21.80;99.90
20045;DHT22;10183;47.808;9.476;2023-05-20T12:36:13;21.80;99.90
20045;DHT22;10183;47.808;9.476;2023-05-20T12:38:39;22.50;99.90
20045;DHT22;10183;47.808;9.476;2023-05-20T12:41:06;23.30;99.90
20045;DHT22;10183;47.808;9.476;2023-05-20T12:43:32;23.10;99.90
20045;DHT22;10183;47.808;9.476;2023-05-20T12:45:59;23.20;99.90
20045;DHT22;10183;47.808;9.476;2023-05-20T12:48:25;23.20;99.90
20045;DHT22;10183;47.808;9.476;2023-05-20T12:50:52;22.80;99.90
20045;DHT22;10183;47.808;9.476;2023-05-20T12:53:18;23.00;99.90
20045;DHT22;10183;47.808;9.476;2023-05-20T12:55:45;22.80;99.90
20045;DHT22;10183;47.808;9.476;2023-05-20T12:58:11;23.20;99.90
20045;DHT22;10183;47.808;9.476;2023-05-20T13:00:37;23.20;99.90
20045;DHT22;10183;47.808;9.476;2023-05-20T13:03:03;22.80;99.90
20045;DHT22;10183;47.808;9.476;2023-05-20T13:05:30;22.70;99.90
20045;DHT22;10183;47.808;9.476;2023-05-20T13:07:56;22.40;99.90
20045;DHT22;10183;47.808;9.476;2023-05-20T13:10:23;22.20;99.90
20045;DHT22;10183;47.808;9.476;2023-05-20T13:12:49;22.90;99.90
20045;DHT22;10183;47.808;9.476;2023-05-20T13:15:15;23.90;99.90
20045;DHT22;10183;47.808;9.476;2023-05-20T13:17:41;22.80;99.90
20045;DHT22;10183;47.808;9.476;2023-05-20T13:20:08;21.90;99.90
20045;DHT22;10183;47.808;9.476;2023-05-20T13:22:35;21.70;99.90
20045;DHT22;10183;47.808;9.476;2023-05-20T13:25:02;22.80;99.90
20045;DHT22;10183;47.808;9.476;2023-05-20T13:27:29;24.10;99.90
20045;DHT22;10183;47.808;9.476;2023-05-20T13:29:55;24.30;99.90
20045;DHT22;10183;47.808;9.476;2023-05-20T13:32:21;24.30;99.90
20045;DHT22;10183;47.808;9.476;2023-05-20T13:34:48;25.00;99.90
20045;DHT22;10183;47.808;9.476;2023-05-20T13:37:14;26.20;99.90
20045;DHT22;10183;47.808;9.476;2023-05-20T13:39:40;27.10;99.90
20045;DHT22;10183;47.808;9.476;2023-05-20T13:42:06;28.10;80.30
20045;DHT22;10183;47.808;9.476;2023-05-20T13:44:32;27.70;52.40
20045;DHT22;10183;47.808;9.476;2023-05-20T13:46:59;27.30;56.60
20045;DHT22;10183;47.808;9.476;2023-05-20T13:49:25;27.20;51.80
20045;DHT22;10183;47.808;9.476;2023-05-20T13:51:52;27.70;51.90
20045;DHT22;10183;47.808;9.476;2023-05-20T13:54:19;27.60;57.00
20045;DHT22;10183;47.808;9.476;2023-05-20T13:56:45;28.40;46.60
20045;DHT22;10183;47.808;9.476;2023-05-20T13:59:11;28.80;41.60
20045;DHT22;10183;47.808;9.476;2023-05-20T14:01:37;28.80;42.20
20045;DHT22;10183;47.808;9.476;2023-05-20T14:04:05;29.00;45.30
20045;DHT22;10183;47.808;9.476;2023-05-20T14:06:32;30.10;35.00
20045;DHT22;10183;47.808;9.476;2023-05-20T14:08:58;30.10;31.30
20045;DHT22;10183;47.808;9.476;2023-05-20T14:11:25;30.10;25.80
20045;DHT22;10183;47.808;9.476;2023-05-20T14:13:51;31.20;26.50
20045;DHT22;10183;47.808;9.476;2023-05-20T14:16:17;31.40;21.70
20045;DHT22;10183;47.808;9.476;2023-05-20T14:18:43;30.60;24.40
20045;DHT22;10183;47.808;9.476;2023-05-20T14:21:10;29.80;25.00
20045;DHT22;10183;47.808;9.476;2023-05-20T14:23:36;28.80;30.00
20045;DHT22;10183;47.808;9.476;2023-05-20T14:26:03;27.60;35.00
20045;DHT22;10183;47.808;9.476;2023-05-20T14:28:29;27.80;44.50
20045;DHT22;10183;47.808;9.476;2023-05-20T14:30:55;28.20;44.90
20045;DHT22;10183;47.808;9.476;2023-05-20T14:33:21;28.60;42.10
20045;DHT22;10183;47.808;9.476;2023-05-20T14:35:47;27.60;38.20
20045;DHT22;10183;47.808;9.476;2023-05-20T14:38:13;27.30;44.80
20045;DHT22;10183;47.808;9.476;2023-05-20T14:40:39;27.00;48.70
20045;DHT22;10183;47.808;9.476;2023-05-20T14:43:05;26.80;49.10
20045;DHT22;10183;47.808;9.476;2023-05-20T14:45:32;26.70;74.10
20045;DHT22;10183;47.808;9.476;2023-05-20T14:47:58;26.90;65.00
20045;DHT22;10183;47.808;9.476;2023-05-20T14:50:24;26.80;73.00
20045;DHT22;10183;47.808;9.476;2023-05-20T14:52:50;27.50;76.20
20045;DHT22;10183;47.808;9.476;2023-05-20T14:55:16;27.50;58.10
20045;DHT22;10183;47.808;9.476;2023-05-20T14:57:42;26.80;61.00
20045;DHT22;10183;47.808;9.476;2023-05-20T15:00:09;26.20;83.60
20045;DHT22;10183;47.808;9.476;2023-05-20T15:02:35;25.80;90.00
20045;DHT22;10183;47.808;9.476;2023-05-20T15:05:02;26.20;86.70
20045;DHT22;10183;47.808;9.476;2023-05-20T15:07:28;26.60;75.40
20045;DHT22;10183;47.808;9.476;2023-05-20T15:09:54;26.60;70.10
20045;DHT22;10183;47.808;9.476;2023-05-20T15:12:21;26.20;67.90
20045;DHT22;10183;47.808;9.476;2023-05-20T15:14:47;25.80;76.90
20045;DHT22;10183;47.808;9.476;2023-05-20T15:17:13;25.40;90.70
20045;DHT22;10183;47.808;9.476;2023-05-20T15:19:40;25.80;91.40
20045;DHT22;10183;47.808;9.476;2023-05-20T15:22:06;25.30;90.90
20045;DHT22;10183;47.808;9.476;2023-05-20T15:24:33;25.10;97.80
20045;DHT22;10183;47.808;9.476;2023-05-20T15:26:59;24.90;97.60
20045;DHT22;10183;47.808;9.476;2023-05-20T15:29:25;24.80;97.90
20045;DHT22;10183;47.808;9.476;2023-05-20T15:31:51;24.80;99.90
20045;DHT22;10183;47.808;9.476;2023-05-20T15:34:18;25.30;99.90
20045;DHT22;10183;47.808;9.476;2023-05-20T15:36:44;26.00;99.90
20045;DHT22;10183;47.808;9.476;2023-05-20T15:39:10;25.30;96.60
20045;DHT22;10183;47.808;9.476;2023-05-20T15:41:37;25.50;96.00
20045;DHT22;10183;47.808;9.476;2023-05-20T15:44:04;25.90;94.60